Flight Track Log - Related Links

Times and Time Zones

All times are in EDT time to prevent confusion due to time zone crossing. See the UCA597 flight status page for this flight to view local times or setup timezone preferences in your user account.

Time Position Orientation Groundspeed Altitude Reporting Facility
EDT Latitude Longitude Course Direction KTS MPH feet Rate Location/Type
Wed 06:14:20 PM 38.9500 -77.5167 337° Northwest 150 173 1,900  Level Potomac TRACON
Wed 06:16:30 PM 39.0533 -77.5722 337° Northwest 205 236 4,400 1,200 Climbing Washington Center
Wed 06:17:30 PM 39.1203 -77.5606 North 224 258 5,700 1,339 Climbing Washington Center
Wed 06:18:31 PM 39.1894 -77.5439 11° North 238 274 7,100 1,537 Climbing Washington Center
Wed 06:19:31 PM 39.2583 -77.5269 11° North 243 280 8,800 1,627 Climbing Washington Center
Wed 06:20:29 PM 39.3233 -77.5100 11° North 238 274 10,300 1,412 Climbing Washington Center
Wed 06:21:30 PM 39.3903 -77.4956 North 238 274 11,600 1,230 Climbing Washington Center
Wed 06:22:31 PM 39.4572 -77.4811 North 238 274 12,800 1,317 Climbing Washington Center
Wed 06:24:14 PM 39.5772 -77.4675 North 262 302 15,200 1,399 Climbing New York Center
Wed 06:25:14 PM 39.6506 -77.4258 24° Northeast 262 302 16,600 1,150 Climbing New York Center
Wed 06:26:14 PM 39.7150 -77.3914 22° Northeast 262 302 17,500 1,150 Climbing New York Center
Wed 06:27:14 PM 39.7903 -77.3500 23° Northeast 262 302 18,900 1,200 Climbing New York Center
Wed 06:28:14 PM 39.8589 -77.3158 21° North 262 302 19,900 992 Climbing New York Center
Wed 06:29:15 PM 39.9319 -77.2767 22° Northeast 262 302 20,900 550 Climbing New York Center
Wed 06:30:14 PM 40.0053 -77.2344 24° Northeast 268 308 21,000 50 Climbing New York Center
Wed 06:31:14 PM 40.0869 -77.1906 22° Northeast 288 331 21,000  Level New York Center
Wed 06:32:14 PM 40.1706 -77.1439 23° Northeast 308 354 21,000  Level New York Center
Wed 06:33:14 PM 40.2544 -77.0972 23° Northeast 319 367 21,000  Level New York Center
Wed 06:34:14 PM 40.3383 -77.0506 23° Northeast 319 367 21,000  Level New York Center
Wed 06:35:14 PM 40.4242 -77.0011 24° Northeast 324 373 21,000  Level New York Center
Wed 06:36:14 PM 40.5100 -76.9569 21° North 324 373 21,000  Level New York Center
Wed 06:37:14 PM 40.5958 -76.9072 24° Northeast 324 373 21,000  Level New York Center
Wed 06:38:14 PM 40.6797 -76.8600 23° Northeast 324 373 21,000  Level New York Center
Wed 06:39:14 PM 40.7656 -76.8128 23° Northeast 324 373 21,000  Level New York Center
Wed 06:40:14 PM 40.8511 -76.7656 23° Northeast 324 373 21,000 -397 Level New York Center
Wed 06:41:15 PM 40.9328 -76.7178 24° Northeast 319 367 20,200 -950 Descending New York Center
Wed 06:42:14 PM 41.0164 -76.6700 23° Northeast 319 367 19,100 -1,059 Descending New York Center
Wed 06:43:14 PM 41.0853 -76.6292 24° Northeast 306 352 18,100 -1,000 Descending New York Center
Wed 06:44:14 PM 41.1622 -76.5861 23° Northeast 301 346 17,100 -550 Descending New York Center
Wed 06:45:14 PM 41.2503 -76.5358 23° Northeast 306 352 17,000 -50 Descending New York Center
Wed 06:46:14 PM 41.3317 -76.4903 23° Northeast 306 352 17,000  Level New York Center
Wed 06:47:14 PM 41.4089 -76.4442 24° Northeast 306 352 17,000  Level New York Center
Wed 06:48:14 PM 41.4817 -76.4033 23° Northeast 306 352 17,000 -397 Level New York Center
Wed 06:49:15 PM 41.5714 -76.3525 23° Northeast 311 358 16,200 -1,150 Descending New York Center
Wed 06:50:14 PM 41.6592 -76.3017 23° Northeast 324 373 14,700 -1,462 Descending New York Center
Wed 06:51:14 PM 41.7406 -76.2556 23° Northeast 324 373 13,300 -1,450 Descending New York Center
Wed 06:52:14 PM 41.8153 -76.2117 24° Northeast 324 373 11,800 -1,450 Descending New York Center
Wed 06:53:14 PM 41.9022 -76.1769 17° North 318 366 10,400 -1,550 Descending New York Center
Wed 06:54:14 PM 41.9986 -76.1653 North 313 360 8,700 -1,450 Descending New York Center
Wed 06:55:14 PM 42.0700 -76.1517 North 308 354 7,500 -1,350 Descending New York Center
Wed 06:56:14 PM 42.1500 -76.1356 North 295 339 6,000 -1,500 Descending New York Center
Wed 06:57:14 PM 42.2233 -76.1250 North 275 316 4,500 -1,300 Descending New York Center
Wed 06:58:14 PM 42.2933 -76.1417 350° North 262 302 3,400 -600 Descending New York Center
Wed 06:59:14 PM 42.3456 -76.1350 North 235 270 3,300 -50 Descending New York Center
Wed 07:00:14 PM 42.3269 -76.0856 117° Southeast 105 121 3,300  Level New York Center
Wed 07:01:14 PM 42.2928 -76.0578 149° Southeast 84 97 3,300 -250 Level New York Center
Wed 07:02:14 PM 42.2650 -76.0303 144° Southeast 105 121 2,800 -500 Descending New York Center
Wed 07:04:00 PM 42.2084 -75.9796 North  Level Estimated
Wed 07:11:00 PM 42.2084 -75.9796 North  Level Estimated
Wed 07:12:00 PM 42.2084 -75.9796 325° Northwest  Level Estimated
Wed 07:13:00 PM 42.2084 -75.9796 325° Northwest  Level Estimated
Wed 07:14:00 PM 42.2084 -75.9796 143° Southeast  Level Estimated

Login

Don't have an account? Register now (free) for customized features, flight alerts, and more!